sensor_id;sensor_type;location;lat;lon;timestamp;P1;durP1;ratioP1;P2;durP2;ratioP2
41887;SDS011;63122;52.424;13.458;2024-01-11T00:03:10;72.03;;;30.87;;
41887;SDS011;63122;52.424;13.458;2024-01-11T00:05:34;69.87;;;30.30;;
41887;SDS011;63122;52.424;13.458;2024-01-11T00:08:41;65.60;;;28.93;;
41887;SDS011;63122;52.424;13.458;2024-01-11T00:11:05;65.03;;;28.70;;
41887;SDS011;63122;52.424;13.458;2024-01-11T00:13:02;71.80;;;29.73;;
41887;SDS011;63122;52.424;13.458;2024-01-11T00:15:01;68.27;;;30.33;;
41887;SDS011;63122;52.424;13.458;2024-01-11T00:17:06;73.93;;;32.10;;
41887;SDS011;63122;52.424;13.458;2024-01-11T00:19:04;73.07;;;30.77;;
41887;SDS011;63122;52.424;13.458;2024-01-11T00:21:05;61.97;;;27.53;;
41887;SDS011;63122;52.424;13.458;2024-01-11T00:25:38;55.67;;;24.70;;
41887;SDS011;63122;52.424;13.458;2024-01-11T00:28:05;46.67;;;21.20;;
41887;SDS011;63122;52.424;13.458;2024-01-11T00:30:26;54.00;;;22.67;;
41887;SDS011;63122;52.424;13.458;2024-01-11T00:36:03;56.13;;;24.33;;
41887;SDS011;63122;52.424;13.458;2024-01-11T00:38:42;56.50;;;26.13;;
41887;SDS011;63122;52.424;13.458;2024-01-11T00:41:03;53.50;;;24.60;;
41887;SDS011;63122;52.424;13.458;2024-01-11T00:43:47;58.13;;;23.80;;
41887;SDS011;63122;52.424;13.458;2024-01-11T00:45:45;64.77;;;26.47;;
41887;SDS011;63122;52.424;13.458;2024-01-11T00:47:48;57.20;;;23.93;;
41887;SDS011;63122;52.424;13.458;2024-01-11T00:49:59;58.20;;;26.27;;
41887;SDS011;63122;52.424;13.458;2024-01-11T00:52:30;47.63;;;22.17;;
41887;SDS011;63122;52.424;13.458;2024-01-11T00:56:58;55.40;;;25.30;;
41887;SDS011;63122;52.424;13.458;2024-01-11T00:59:05;48.93;;;22.10;;
41887;SDS011;63122;52.424;13.458;2024-01-11T01:01:38;44.43;;;19.67;;
41887;SDS011;63122;52.424;13.458;2024-01-11T01:03:59;44.67;;;20.10;;
41887;SDS011;63122;52.424;13.458;2024-01-11T01:06:13;40.60;;;18.03;;
41887;SDS011;63122;52.424;13.458;2024-01-11T01:08:11;36.40;;;18.37;;
41887;SDS011;63122;52.424;13.458;2024-01-11T01:10:07;36.13;;;16.80;;
41887;SDS011;63122;52.424;13.458;2024-01-11T01:12:03;35.90;;;15.57;;
41887;SDS011;63122;52.424;13.458;2024-01-11T01:13:56;31.60;;;16.50;;
41887;SDS011;63122;52.424;13.458;2024-01-11T01:15:52;33.87;;;15.83;;
41887;SDS011;63122;52.424;13.458;2024-01-11T01:17:44;32.93;;;16.03;;
41887;SDS011;63122;52.424;13.458;2024-01-11T01:19:40;31.40;;;14.70;;
41887;SDS011;63122;52.424;13.458;2024-01-11T01:21:35;35.80;;;15.83;;
41887;SDS011;63122;52.424;13.458;2024-01-11T01:23:31;31.93;;;13.93;;
41887;SDS011;63122;52.424;13.458;2024-01-11T01:25:26;32.47;;;15.53;;
41887;SDS011;63122;52.424;13.458;2024-01-11T01:27:19;31.20;;;15.00;;
41887;SDS011;63122;52.424;13.458;2024-01-11T01:29:14;28.23;;;13.80;;
41887;SDS011;63122;52.424;13.458;2024-01-11T01:31:10;34.67;;;16.70;;
41887;SDS011;63122;52.424;13.458;2024-01-11T01:33:03;35.83;;;16.00;;
41887;SDS011;63122;52.424;13.458;2024-01-11T01:34:59;37.60;;;16.07;;
41887;SDS011;63122;52.424;13.458;2024-01-11T01:36:52;35.67;;;15.83;;
41887;SDS011;63122;52.424;13.458;2024-01-11T01:38:50;32.80;;;15.17;;
41887;SDS011;63122;52.424;13.458;2024-01-11T01:40:42;35.53;;;16.53;;
41887;SDS011;63122;52.424;13.458;2024-01-11T01:42:40;33.97;;;16.33;;
41887;SDS011;63122;52.424;13.458;2024-01-11T01:44:37;35.60;;;16.47;;
41887;SDS011;63122;52.424;13.458;2024-01-11T01:46:33;37.17;;;17.07;;
41887;SDS011;63122;52.424;13.458;2024-01-11T01:48:29;40.47;;;16.87;;
41887;SDS011;63122;52.424;13.458;2024-01-11T01:50:25;41.00;;;17.17;;
41887;SDS011;63122;52.424;13.458;2024-01-11T01:52:21;40.90;;;17.03;;
41887;SDS011;63122;52.424;13.458;2024-01-11T01:54:17;36.77;;;15.87;;
41887;SDS011;63122;52.424;13.458;2024-01-11T01:56:14;41.97;;;18.77;;
41887;SDS011;63122;52.424;13.458;2024-01-11T01:58:10;36.30;;;17.00;;
41887;SDS011;63122;52.424;13.458;2024-01-11T02:50:34;19.13;;;9.53;;
41887;SDS011;63122;52.424;13.458;2024-01-11T02:52:29;16.90;;;8.40;;
41887;SDS011;63122;52.424;13.458;2024-01-11T02:54:25;17.90;;;8.30;;
41887;SDS011;63122;52.424;13.458;2024-01-11T02:56:20;16.97;;;8.97;;
41887;SDS011;63122;52.424;13.458;2024-01-11T02:58:13;19.10;;;9.60;;
41887;SDS011;63122;52.424;13.458;2024-01-11T03:00:08;16.63;;;6.67;;
41887;SDS011;63122;52.424;13.458;2024-01-11T03:02:05;16.57;;;8.13;;
41887;SDS011;63122;52.424;13.458;2024-01-11T03:04:03;13.27;;;6.27;;
41887;SDS011;63122;52.424;13.458;2024-01-11T03:05:59;14.07;;;7.87;;
41887;SDS011;63122;52.424;13.458;2024-01-11T03:07:51;16.60;;;7.83;;
41887;SDS011;63122;52.424;13.458;2024-01-11T03:09:47;18.03;;;8.40;;
41887;SDS011;63122;52.424;13.458;2024-01-11T03:11:42;15.07;;;7.90;;
41887;SDS011;63122;52.424;13.458;2024-01-11T03:13:38;14.13;;;7.13;;
41887;SDS011;63122;52.424;13.458;2024-01-11T03:15:30;14.30;;;7.27;;
41887;SDS011;63122;52.424;13.458;2024-01-11T03:17:25;17.17;;;8.03;;
41887;SDS011;63122;52.424;13.458;2024-01-11T03:19:21;15.10;;;7.37;;
41887;SDS011;63122;52.424;13.458;2024-01-11T03:21:16;15.53;;;7.17;;
41887;SDS011;63122;52.424;13.458;2024-01-11T03:23:11;16.83;;;8.00;;
41887;SDS011;63122;52.424;13.458;2024-01-11T03:25:05;14.37;;;7.10;;
41887;SDS011;63122;52.424;13.458;2024-01-11T03:27:00;15.80;;;8.30;;
41887;SDS011;63122;52.424;13.458;2024-01-11T03:28:56;15.80;;;8.27;;
41887;SDS011;63122;52.424;13.458;2024-01-11T03:30:51;16.10;;;7.60;;
41887;SDS011;63122;52.424;13.458;2024-01-11T03:32:46;20.33;;;9.50;;
41887;SDS011;63122;52.424;13.458;2024-01-11T03:34:44;20.67;;;9.13;;
41887;SDS011;63122;52.424;13.458;2024-01-11T03:36:40;19.00;;;8.43;;
41887;SDS011;63122;52.424;13.458;2024-01-11T03:38:35;17.63;;;8.20;;
41887;SDS011;63122;52.424;13.458;2024-01-11T03:40:31;17.23;;;8.13;;
41887;SDS011;63122;52.424;13.458;2024-01-11T03:42:26;17.47;;;8.53;;
41887;SDS011;63122;52.424;13.458;2024-01-11T03:44:21;16.33;;;7.80;;
41887;SDS011;63122;52.424;13.458;2024-01-11T03:46:17;18.97;;;8.90;;
41887;SDS011;63122;52.424;13.458;2024-01-11T03:48:12;16.23;;;8.03;;
41887;SDS011;63122;52.424;13.458;2024-01-11T03:50:10;17.93;;;9.17;;
41887;SDS011;63122;52.424;13.458;2024-01-11T03:52:03;15.47;;;7.67;;
41887;SDS011;63122;52.424;13.458;2024-01-11T03:53:59;17.00;;;8.27;;
41887;SDS011;63122;52.424;13.458;2024-01-11T03:55:55;17.63;;;8.80;;
41887;SDS011;63122;52.424;13.458;2024-01-11T03:57:50;15.90;;;7.03;;
41887;SDS011;63122;52.424;13.458;2024-01-11T03:59:46;16.97;;;8.83;;
41887;SDS011;63122;52.424;13.458;2024-01-11T04:01:41;20.97;;;9.50;;
41887;SDS011;63122;52.424;13.458;2024-01-11T04:03:36;18.97;;;9.13;;
41887;SDS011;63122;52.424;13.458;2024-01-11T04:05:34;22.03;;;11.00;;
41887;SDS011;63122;52.424;13.458;2024-01-11T04:07:30;20.63;;;9.20;;
41887;SDS011;63122;52.424;13.458;2024-01-11T04:09:22;23.77;;;9.67;;
41887;SDS011;63122;52.424;13.458;2024-01-11T04:11:18;20.27;;;9.13;;
41887;SDS011;63122;52.424;13.458;2024-01-11T04:13:10;24.17;;;9.70;;
41887;SDS011;63122;52.424;13.458;2024-01-11T04:15:06;19.87;;;9.57;;
41887;SDS011;63122;52.424;13.458;2024-01-11T04:17:00;27.83;;;11.13;;
41887;SDS011;63122;52.424;13.458;2024-01-11T04:18:56;21.80;;;9.97;;
41887;SDS011;63122;52.424;13.458;2024-01-11T04:20:53;22.20;;;9.53;;
41887;SDS011;63122;52.424;13.458;2024-01-11T04:22:49;20.33;;;9.63;;
41887;SDS011;63122;52.424;13.458;2024-01-11T04:24:43;21.37;;;9.70;;
41887;SDS011;63122;52.424;13.458;2024-01-11T04:26:38;25.03;;;10.37;;
41887;SDS011;63122;52.424;13.458;2024-01-11T04:28:31;25.63;;;11.30;;
41887;SDS011;63122;52.424;13.458;2024-01-11T04:30:27;29.93;;;11.33;;
41887;SDS011;63122;52.424;13.458;2024-01-11T04:32:22;29.40;;;12.13;;
41887;SDS011;63122;52.424;13.458;2024-01-11T04:34:18;25.70;;;11.13;;
41887;SDS011;63122;52.424;13.458;2024-01-11T04:36:15;32.20;;;12.87;;
41887;SDS011;63122;52.424;13.458;2024-01-11T04:38:11;30.23;;;11.77;;
41887;SDS011;63122;52.424;13.458;2024-01-11T04:40:04;26.43;;;10.60;;
41887;SDS011;63122;52.424;13.458;2024-01-11T04:42:03;35.50;;;12.93;;
41887;SDS011;63122;52.424;13.458;2024-01-11T04:43:56;25.03;;;11.43;;
41887;SDS011;63122;52.424;13.458;2024-01-11T04:45:51;26.47;;;10.90;;
41887;SDS011;63122;52.424;13.458;2024-01-11T04:47:44;30.97;;;10.70;;
41887;SDS011;63122;52.424;13.458;2024-01-11T04:49:39;26.70;;;10.53;;
41887;SDS011;63122;52.424;13.458;2024-01-11T04:51:37;30.73;;;12.40;;
41887;SDS011;63122;52.424;13.458;2024-01-11T04:53:33;31.37;;;10.53;;
41887;SDS011;63122;52.424;13.458;2024-01-11T04:55:28;35.50;;;11.13;;
41887;SDS011;63122;52.424;13.458;2024-01-11T04:57:23;21.67;;;9.37;;
41887;SDS011;63122;52.424;13.458;2024-01-11T04:59:16;29.73;;;10.50;;
41887;SDS011;63122;52.424;13.458;2024-01-11T05:01:13;33.73;;;10.13;;
41887;SDS011;63122;52.424;13.458;2024-01-11T05:03:07;31.60;;;11.03;;
41887;SDS011;63122;52.424;13.458;2024-01-11T05:05:02;26.53;;;9.60;;
41887;SDS011;63122;52.424;13.458;2024-01-11T05:07:01;34.97;;;10.83;;
41887;SDS011;63122;52.424;13.458;2024-01-11T05:08:57;25.93;;;10.13;;
41887;SDS011;63122;52.424;13.458;2024-01-11T05:10:52;31.63;;;10.50;;
41887;SDS011;63122;52.424;13.458;2024-01-11T05:12:45;29.53;;;10.00;;
41887;SDS011;63122;52.424;13.458;2024-01-11T05:14:41;22.03;;;6.53;;
41887;SDS011;63122;52.424;13.458;2024-01-11T05:16:35;29.27;;;8.77;;
41887;SDS011;63122;52.424;13.458;2024-01-11T05:18:32;35.27;;;10.47;;
41887;SDS011;63122;52.424;13.458;2024-01-11T05:20:27;37.53;;;11.67;;
41887;SDS011;63122;52.424;13.458;2024-01-11T05:22:25;41.07;;;11.60;;
41887;SDS011;63122;52.424;13.458;2024-01-11T05:24:21;32.67;;;11.53;;
41887;SDS011;63122;52.424;13.458;2024-01-11T05:26:16;35.23;;;11.53;;
41887;SDS011;63122;52.424;13.458;2024-01-11T05:28:12;32.33;;;11.73;;
41887;SDS011;63122;52.424;13.458;2024-01-11T05:30:08;38.20;;;11.43;;
41887;SDS011;63122;52.424;13.458;2024-01-11T05:32:02;26.30;;;7.93;;
41887;SDS011;63122;52.424;13.458;2024-01-11T05:33:57;44.93;;;12.40;;
41887;SDS011;63122;52.424;13.458;2024-01-11T05:35:53;32.50;;;10.83;;
41887;SDS011;63122;52.424;13.458;2024-01-11T05:37:48;34.50;;;11.73;;
41887;SDS011;63122;52.424;13.458;2024-01-11T05:39:44;52.43;;;11.93;;
41887;SDS011;63122;52.424;13.458;2024-01-11T05:41:39;42.80;;;11.80;;
41887;SDS011;63122;52.424;13.458;2024-01-11T05:43:34;43.10;;;11.07;;
41887;SDS011;63122;52.424;13.458;2024-01-11T05:45:29;32.63;;;10.43;;
41887;SDS011;63122;52.424;13.458;2024-01-11T05:47:38;31.77;;;10.90;;
41887;SDS011;63122;52.424;13.458;2024-01-11T05:49:33;33.73;;;10.77;;
41887;SDS011;63122;52.424;13.458;2024-01-11T05:51:29;43.57;;;12.13;;
41887;SDS011;63122;52.424;13.458;2024-01-11T05:53:24;46.00;;;11.00;;
41887;SDS011;63122;52.424;13.458;2024-01-11T05:55:20;42.43;;;12.07;;
41887;SDS011;63122;52.424;13.458;2024-01-11T05:57:12;36.23;;;10.10;;
41887;SDS011;63122;52.424;13.458;2024-01-11T05:59:08;35.30;;;10.43;;
41887;SDS011;63122;52.424;13.458;2024-01-11T06:01:04;41.13;;;13.27;;
41887;SDS011;63122;52.424;13.458;2024-01-11T06:02:59;41.30;;;12.17;;
41887;SDS011;63122;52.424;13.458;2024-01-11T06:04:55;52.53;;;14.70;;
41887;SDS011;63122;52.424;13.458;2024-01-11T06:06:51;60.87;;;16.17;;
41887;SDS011;63122;52.424;13.458;2024-01-11T06:08:46;42.87;;;11.77;;
41887;SDS011;63122;52.424;13.458;2024-01-11T06:10:41;40.53;;;13.50;;
41887;SDS011;63122;52.424;13.458;2024-01-11T06:12:34;61.90;;;14.63;;
41887;SDS011;63122;52.424;13.458;2024-01-11T06:14:30;49.83;;;13.47;;
41887;SDS011;63122;52.424;13.458;2024-01-11T06:16:25;59.23;;;14.43;;
41887;SDS011;63122;52.424;13.458;2024-01-11T06:18:21;53.77;;;15.00;;
41887;SDS011;63122;52.424;13.458;2024-01-11T06:20:16;45.47;;;13.20;;
41887;SDS011;63122;52.424;13.458;2024-01-11T06:22:13;52.70;;;13.50;;
41887;SDS011;63122;52.424;13.458;2024-01-11T06:24:10;72.13;;;16.17;;
41887;SDS011;63122;52.424;13.458;2024-01-11T06:26:04;64.70;;;14.37;;
41887;SDS011;63122;52.424;13.458;2024-01-11T06:27:59;56.00;;;14.27;;
41887;SDS011;63122;52.424;13.458;2024-01-11T06:29:54;46.10;;;11.27;;
41887;SDS011;63122;52.424;13.458;2024-01-11T06:31:50;61.70;;;14.20;;
41887;SDS011;63122;52.424;13.458;2024-01-11T06:33:43;48.23;;;13.43;;
41887;SDS011;63122;52.424;13.458;2024-01-11T06:35:42;51.17;;;12.93;;
41887;SDS011;63122;52.424;13.458;2024-01-11T06:37:37;53.37;;;13.07;;
41887;SDS011;63122;52.424;13.458;2024-01-11T06:39:35;53.63;;;13.60;;
41887;SDS011;63122;52.424;13.458;2024-01-11T06:41:30;58.40;;;13.97;;
41887;SDS011;63122;52.424;13.458;2024-01-11T06:43:26;66.37;;;15.80;;
41887;SDS011;63122;52.424;13.458;2024-01-11T06:45:19;55.77;;;14.90;;
41887;SDS011;63122;52.424;13.458;2024-01-11T06:47:15;49.37;;;12.70;;
41887;SDS011;63122;52.424;13.458;2024-01-11T06:49:10;77.60;;;15.70;;
41887;SDS011;63122;52.424;13.458;2024-01-11T06:51:04;66.83;;;15.37;;
41887;SDS011;63122;52.424;13.458;2024-01-11T06:52:59;51.23;;;14.57;;
41887;SDS011;63122;52.424;13.458;2024-01-11T06:54:57;65.43;;;15.83;;
41887;SDS011;63122;52.424;13.458;2024-01-11T06:56:53;68.07;;;14.87;;
41887;SDS011;63122;52.424;13.458;2024-01-11T06:58:46;54.13;;;14.70;;
41887;SDS011;63122;52.424;13.458;2024-01-11T07:00:42;53.10;;;14.60;;
41887;SDS011;63122;52.424;13.458;2024-01-11T07:02:37;60.17;;;15.50;;
41887;SDS011;63122;52.424;13.458;2024-01-11T07:04:33;66.43;;;15.70;;
41887;SDS011;63122;52.424;13.458;2024-01-11T07:06:28;64.00;;;14.27;;
41887;SDS011;63122;52.424;13.458;2024-01-11T07:08:23;52.37;;;10.73;;
41887;SDS011;63122;52.424;13.458;2024-01-11T07:10:21;63.37;;;14.73;;
41887;SDS011;63122;52.424;13.458;2024-01-11T07:12:18;64.87;;;15.63;;
41887;SDS011;63122;52.424;13.458;2024-01-11T07:14:13;61.53;;;16.00;;
41887;SDS011;63122;52.424;13.458;2024-01-11T07:16:09;187.67;;;50.93;;
41887;SDS011;63122;52.424;13.458;2024-01-11T07:18:07;60.60;;;12.43;;
41887;SDS011;63122;52.424;13.458;2024-01-11T07:20:03;62.47;;;15.57;;
41887;SDS011;63122;52.424;13.458;2024-01-11T07:22:00;57.50;;;15.23;;
41887;SDS011;63122;52.424;13.458;2024-01-11T07:23:56;58.23;;;15.73;;
41887;SDS011;63122;52.424;13.458;2024-01-11T07:25:55;64.43;;;15.87;;
41887;SDS011;63122;52.424;13.458;2024-01-11T07:27:48;72.23;;;16.90;;
41887;SDS011;63122;52.424;13.458;2024-01-11T07:29:43;74.40;;;16.93;;
41887;SDS011;63122;52.424;13.458;2024-01-11T07:31:36;61.80;;;15.43;;
41887;SDS011;63122;52.424;13.458;2024-01-11T07:33:32;70.17;;;17.77;;
41887;SDS011;63122;52.424;13.458;2024-01-11T07:35:28;56.50;;;15.30;;
41887;SDS011;63122;52.424;13.458;2024-01-11T07:37:23;71.10;;;16.47;;
41887;SDS011;63122;52.424;13.458;2024-01-11T07:39:20;70.80;;;17.70;;
41887;SDS011;63122;52.424;13.458;2024-01-11T07:41:19;68.50;;;16.67;;
41887;SDS011;63122;52.424;13.458;2024-01-11T07:43:17;62.17;;;14.63;;
41887;SDS011;63122;52.424;13.458;2024-01-11T07:45:13;75.33;;;18.37;;
41887;SDS011;63122;52.424;13.458;2024-01-11T07:47:08;76.90;;;18.43;;
41887;SDS011;63122;52.424;13.458;2024-01-11T07:49:04;89.47;;;17.50;;
41887;SDS011;63122;52.424;13.458;2024-01-11T07:51:00;68.03;;;15.67;;
41887;SDS011;63122;52.424;13.458;2024-01-11T07:52:56;77.90;;;18.30;;
41887;SDS011;63122;52.424;13.458;2024-01-11T07:54:52;64.50;;;18.30;;
41887;SDS011;63122;52.424;13.458;2024-01-11T07:56:50;68.73;;;18.00;;
41887;SDS011;63122;52.424;13.458;2024-01-11T07:58:46;71.93;;;18.60;;
41887;SDS011;63122;52.424;13.458;2024-01-11T08:00:41;70.07;;;16.23;;
41887;SDS011;63122;52.424;13.458;2024-01-11T08:02:37;65.27;;;16.13;;
41887;SDS011;63122;52.424;13.458;2024-01-11T08:04:30;50.97;;;13.83;;
41887;SDS011;63122;52.424;13.458;2024-01-11T08:06:25;72.23;;;16.47;;
41887;SDS011;63122;52.424;13.458;2024-01-11T08:08:21;75.50;;;17.40;;
41887;SDS011;63122;52.424;13.458;2024-01-11T08:10:17;49.10;;;13.50;;
41887;SDS011;63122;52.424;13.458;2024-01-11T08:12:12;68.33;;;18.20;;
41887;SDS011;63122;52.424;13.458;2024-01-11T08:14:08;68.53;;;17.80;;
41887;SDS011;63122;52.424;13.458;2024-01-11T08:16:03;67.03;;;17.60;;
41887;SDS011;63122;52.424;13.458;2024-01-11T08:18:02;67.87;;;16.67;;
41887;SDS011;63122;52.424;13.458;2024-01-11T08:19:57;65.93;;;18.13;;
41887;SDS011;63122;52.424;13.458;2024-01-11T08:21:50;34.30;;;10.67;;
41887;SDS011;63122;52.424;13.458;2024-01-11T08:23:48;60.93;;;15.90;;
41887;SDS011;63122;52.424;13.458;2024-01-11T08:25:44;70.53;;;17.70;;
41887;SDS011;63122;52.424;13.458;2024-01-11T08:27:42;72.83;;;17.13;;
41887;SDS011;63122;52.424;13.458;2024-01-11T08:29:36;74.43;;;18.03;;
41887;SDS011;63122;52.424;13.458;2024-01-11T08:31:33;59.63;;;16.83;;
41887;SDS011;63122;52.424;13.458;2024-01-11T08:33:31;70.70;;;18.20;;
41887;SDS011;63122;52.424;13.458;2024-01-11T08:35:25;77.30;;;19.63;;
41887;SDS011;63122;52.424;13.458;2024-01-11T08:37:26;44.03;;;13.27;;
41887;SDS011;63122;52.424;13.458;2024-01-11T08:39:22;65.40;;;17.50;;
41887;SDS011;63122;52.424;13.458;2024-01-11T08:41:25;60.77;;;18.90;;
41887;SDS011;63122;52.424;13.458;2024-01-11T08:43:28;70.33;;;19.47;;
41887;SDS011;63122;52.424;13.458;2024-01-11T08:45:25;61.40;;;18.03;;
41887;SDS011;63122;52.424;13.458;2024-01-11T08:47:31;79.77;;;20.83;;
41887;SDS011;63122;52.424;13.458;2024-01-11T08:49:29;71.50;;;18.80;;
41887;SDS011;63122;52.424;13.458;2024-01-11T08:51:22;45.40;;;12.83;;
41887;SDS011;63122;52.424;13.458;2024-01-11T08:53:20;68.43;;;18.53;;
41887;SDS011;63122;52.424;13.458;2024-01-11T08:55:16;67.67;;;18.93;;
41887;SDS011;63122;52.424;13.458;2024-01-11T08:57:23;56.23;;;16.27;;
41887;SDS011;63122;52.424;13.458;2024-01-11T09:51:46;26.93;;;8.60;;
41887;SDS011;63122;52.424;13.458;2024-01-11T09:55:19;65.60;;;19.50;;
41887;SDS011;63122;52.424;13.458;2024-01-11T09:58:30;56.67;;;17.60;;
41887;SDS011;63122;52.424;13.458;2024-01-11T10:01:00;59.90;;;15.03;;
41887;SDS011;63122;52.424;13.458;2024-01-11T10:03:02;70.37;;;18.70;;
41887;SDS011;63122;52.424;13.458;2024-01-11T10:09:16;56.83;;;15.93;;
41887;SDS011;63122;52.424;13.458;2024-01-11T10:11:22;64.27;;;19.67;;
41887;SDS011;63122;52.424;13.458;2024-01-11T10:13:17;72.73;;;21.97;;
41887;SDS011;63122;52.424;13.458;2024-01-11T10:15:13;56.00;;;18.27;;
41887;SDS011;63122;52.424;13.458;2024-01-11T10:17:09;64.20;;;18.93;;
41887;SDS011;63122;52.424;13.458;2024-01-11T10:19:05;72.93;;;19.93;;
41887;SDS011;63122;52.424;13.458;2024-01-11T10:21:02;59.37;;;17.47;;
41887;SDS011;63122;52.424;13.458;2024-01-11T10:22:58;69.70;;;19.77;;
41887;SDS011;63122;52.424;13.458;2024-01-11T10:24:54;60.30;;;19.07;;
41887;SDS011;63122;52.424;13.458;2024-01-11T10:27:04;41.13;;;14.07;;
41887;SDS011;63122;52.424;13.458;2024-01-11T10:28:59;66.67;;;19.67;;
41887;SDS011;63122;52.424;13.458;2024-01-11T10:30:52;61.13;;;18.47;;
41887;SDS011;63122;52.424;13.458;2024-01-11T10:32:48;67.87;;;20.03;;
41887;SDS011;63122;52.424;13.458;2024-01-11T10:34:44;60.53;;;18.57;;
41887;SDS011;63122;52.424;13.458;2024-01-11T10:36:37;53.17;;;17.10;;
41887;SDS011;63122;52.424;13.458;2024-01-11T10:38:34;62.43;;;20.00;;
41887;SDS011;63122;52.424;13.458;2024-01-11T10:40:34;51.73;;;16.77;;
41887;SDS011;63122;52.424;13.458;2024-01-11T10:42:27;76.27;;;20.40;;
41887;SDS011;63122;52.424;13.458;2024-01-11T10:44:25;60.80;;;19.27;;
41887;SDS011;63122;52.424;13.458;2024-01-11T10:46:22;51.00;;;15.00;;
41887;SDS011;63122;52.424;13.458;2024-01-11T10:48:20;67.23;;;20.30;;
41887;SDS011;63122;52.424;13.458;2024-01-11T10:50:17;70.07;;;21.73;;
41887;SDS011;63122;52.424;13.458;2024-01-11T10:52:13;35.97;;;12.40;;
41887;SDS011;63122;52.424;13.458;2024-01-11T10:54:10;66.20;;;20.17;;
41887;SDS011;63122;52.424;13.458;2024-01-11T10:56:09;64.23;;;20.10;;
41887;SDS011;63122;52.424;13.458;2024-01-11T10:58:07;66.13;;;21.07;;
41887;SDS011;63122;52.424;13.458;2024-01-11T11:00:14;75.40;;;22.23;;
41887;SDS011;63122;52.424;13.458;2024-01-11T11:02:11;58.13;;;17.87;;
41887;SDS011;63122;52.424;13.458;2024-01-11T11:04:08;74.27;;;22.67;;
41887;SDS011;63122;52.424;13.458;2024-01-11T11:06:06;68.60;;;21.33;;
41887;SDS011;63122;52.424;13.458;2024-01-11T11:11:46;66.73;;;21.00;;
41887;SDS011;63122;52.424;13.458;2024-01-11T11:18:17;85.93;;;21.70;;
41887;SDS011;63122;52.424;13.458;2024-01-11T11:20:45;63.57;;;18.97;;
41887;SDS011;63122;52.424;13.458;2024-01-11T11:22:54;54.73;;;18.90;;
41887;SDS011;63122;52.424;13.458;2024-01-11T11:25:23;72.47;;;21.50;;
41887;SDS011;63122;52.424;13.458;2024-01-11T11:27:51;62.43;;;19.47;;
41887;SDS011;63122;52.424;13.458;2024-01-11T11:30:03;65.47;;;20.67;;
41887;SDS011;63122;52.424;13.458;2024-01-11T11:32:00;67.43;;;22.27;;
41887;SDS011;63122;52.424;13.458;2024-01-11T11:34:02;70.03;;;22.10;;
41887;SDS011;63122;52.424;13.458;2024-01-11T11:36:16;69.70;;;21.93;;
41887;SDS011;63122;52.424;13.458;2024-01-11T11:38:36;64.60;;;20.53;;
41887;SDS011;63122;52.424;13.458;2024-01-11T11:40:32;61.40;;;19.77;;
41887;SDS011;63122;52.424;13.458;2024-01-11T11:42:48;71.97;;;21.10;;
41887;SDS011;63122;52.424;13.458;2024-01-11T11:45:09;57.83;;;18.43;;
41887;SDS011;63122;52.424;13.458;2024-01-11T11:47:20;64.87;;;22.60;;
41887;SDS011;63122;52.424;13.458;2024-01-11T11:49:30;68.20;;;21.23;;
41887;SDS011;63122;52.424;13.458;2024-01-11T11:51:56;61.60;;;19.33;;
41887;SDS011;63122;52.424;13.458;2024-01-11T11:53:52;76.53;;;22.30;;
41887;SDS011;63122;52.424;13.458;2024-01-11T11:55:46;60.43;;;18.97;;
41887;SDS011;63122;52.424;13.458;2024-01-11T11:57:42;73.27;;;20.37;;
41887;SDS011;63122;52.424;13.458;2024-01-11T11:59:42;72.13;;;21.83;;
41887;SDS011;63122;52.424;13.458;2024-01-11T12:01:35;76.40;;;22.57;;
41887;SDS011;63122;52.424;13.458;2024-01-11T12:03:33;74.33;;;21.43;;
41887;SDS011;63122;52.424;13.458;2024-01-11T12:05:30;77.50;;;23.27;;
41887;SDS011;63122;52.424;13.458;2024-01-11T12:07:27;70.87;;;21.17;;
41887;SDS011;63122;52.424;13.458;2024-01-11T12:09:23;72.27;;;22.80;;
41887;SDS011;63122;52.424;13.458;2024-01-11T12:11:21;79.40;;;24.40;;
41887;SDS011;63122;52.424;13.458;2024-01-11T12:13:21;79.80;;;22.90;;
41887;SDS011;63122;52.424;13.458;2024-01-11T12:15:21;82.27;;;24.77;;
41887;SDS011;63122;52.424;13.458;2024-01-11T12:17:17;83.07;;;23.13;;
41887;SDS011;63122;52.424;13.458;2024-01-11T12:19:16;73.33;;;22.77;;
41887;SDS011;63122;52.424;13.458;2024-01-11T12:21:12;61.07;;;16.33;;
41887;SDS011;63122;52.424;13.458;2024-01-11T12:23:11;90.73;;;23.13;;
41887;SDS011;63122;52.424;13.458;2024-01-11T12:25:07;78.97;;;22.10;;
41887;SDS011;63122;52.424;13.458;2024-01-11T12:27:04;80.13;;;23.07;;
41887;SDS011;63122;52.424;13.458;2024-01-11T12:29:00;74.17;;;21.20;;
41887;SDS011;63122;52.424;13.458;2024-01-11T12:31:00;73.43;;;23.17;;
41887;SDS011;63122;52.424;13.458;2024-01-11T12:32:57;76.30;;;20.77;;
41887;SDS011;63122;52.424;13.458;2024-01-11T12:34:54;67.63;;;22.03;;
41887;SDS011;63122;52.424;13.458;2024-01-11T12:36:47;63.77;;;19.47;;
41887;SDS011;63122;52.424;13.458;2024-01-11T12:38:46;81.77;;;22.30;;
41887;SDS011;63122;52.424;13.458;2024-01-11T12:40:53;69.10;;;21.50;;
41887;SDS011;63122;52.424;13.458;2024-01-11T12:42:58;80.27;;;23.57;;
41887;SDS011;63122;52.424;13.458;2024-01-11T12:44:55;66.90;;;20.10;;
41887;SDS011;63122;52.424;13.458;2024-01-11T12:46:56;65.57;;;19.30;;
41887;SDS011;63122;52.424;13.458;2024-01-11T12:49:06;72.80;;;21.60;;
41887;SDS011;63122;52.424;13.458;2024-01-11T12:51:20;67.37;;;20.10;;
41887;SDS011;63122;52.424;13.458;2024-01-11T12:53:19;76.00;;;22.57;;
41887;SDS011;63122;52.424;13.458;2024-01-11T12:55:17;67.30;;;22.50;;
41887;SDS011;63122;52.424;13.458;2024-01-11T12:57:17;78.50;;;22.10;;
41887;SDS011;63122;52.424;13.458;2024-01-11T12:59:13;75.33;;;22.80;;
41887;SDS011;63122;52.424;13.458;2024-01-11T13:01:08;29.07;;;9.80;;
41887;SDS011;63122;52.424;13.458;2024-01-11T13:03:06;72.87;;;21.93;;
41887;SDS011;63122;52.424;13.458;2024-01-11T13:05:04;60.57;;;19.67;;
41887;SDS011;63122;52.424;13.458;2024-01-11T13:07:00;79.13;;;22.90;;
41887;SDS011;63122;52.424;13.458;2024-01-11T13:08:56;75.63;;;20.00;;
41887;SDS011;63122;52.424;13.458;2024-01-11T13:10:52;78.90;;;22.47;;
41887;SDS011;63122;52.424;13.458;2024-01-11T13:12:45;72.50;;;20.50;;
41887;SDS011;63122;52.424;13.458;2024-01-11T13:14:48;51.63;;;15.67;;
41887;SDS011;63122;52.424;13.458;2024-01-11T13:16:45;71.37;;;20.00;;
41887;SDS011;63122;52.424;13.458;2024-01-11T13:18:41;74.23;;;25.20;;
41887;SDS011;63122;52.424;13.458;2024-01-11T13:20:37;71.37;;;22.23;;
41887;SDS011;63122;52.424;13.458;2024-01-11T13:22:33;75.23;;;23.00;;
41887;SDS011;63122;52.424;13.458;2024-01-11T13:24:28;86.57;;;24.37;;
41887;SDS011;63122;52.424;13.458;2024-01-11T13:26:25;64.63;;;19.10;;
41887;SDS011;63122;52.424;13.458;2024-01-11T13:28:20;80.37;;;23.57;;
41887;SDS011;63122;52.424;13.458;2024-01-11T13:30:13;70.57;;;21.93;;
41887;SDS011;63122;52.424;13.458;2024-01-11T13:32:09;78.53;;;23.77;;
41887;SDS011;63122;52.424;13.458;2024-01-11T13:34:07;81.23;;;22.73;;